Time;durP1;ratioP1;P1;durP2;ratioP2;P2;SDS_P1;SDS_P2;PMS_P1;PMS_P2;Temp;Humidity;BMP_temperature;BMP_pressure;BME280_temperature;BME280_humidity;BME280_pressure;Samples;Min_cycle;Max_cycle;Signal;HPM_P1;HPM_P2
2023/05/23 00:01:47;;;;;;;13.90;10.35;;;17.00;99.90;;;;;;5012533;28;20210;-78
2023/05/23 00:04:17;;;;;;;13.35;9.38;;;17.20;99.90;;;;;;4992120;28;20192;-77
2023/05/23 00:06:49;;;;;;;10.65;8.82;;;17.20;99.90;;;;;;4990785;28;20200;-77
2023/05/23 00:09:16;;;;;;;12.13;9.63;;;17.00;99.90;;;;;;5013189;28;21424;-77
2023/05/23 00:11:44;;;;;;;9.90;8.80;;;16.90;99.90;;;;;;4996575;28;20212;-77
2023/05/23 00:14:13;;;;;;;11.15;8.93;;;16.80;99.90;;;;;;5012630;28;20214;-77
2023/05/23 00:16:41;;;;;;;10.15;8.43;;;16.80;99.90;;;;;;4994947;28;20200;-77
2023/05/23 00:19:10;;;;;;;9.73;8.73;;;16.80;99.90;;;;;;4992424;28;20224;-77
2023/05/23 00:21:38;;;;;;;9.38;8.07;;;16.70;99.90;;;;;;4995280;28;20199;-77
2023/05/23 00:24:06;;;;;;;7.88;7.10;;;16.70;99.90;;;;;;5013286;28;20214;-79
2023/05/23 00:26:37;;;;;;;9.05;6.50;;;16.50;99.90;;;;;;5009380;28;20208;-80
2023/05/23 00:29:04;;;;;;;6.80;6.00;;;16.40;99.90;;;;;;5009171;28;20215;-79
2023/05/23 00:31:32;;;;;;;6.43;5.60;;;16.40;99.90;;;;;;4996569;28;20199;-79
2023/05/23 00:33:59;;;;;;;6.28;5.68;;;16.40;99.90;;;;;;5017010;28;20187;-79
2023/05/23 00:36:36;;;;;;;5.78;4.95;;;16.40;99.90;;;;;;4995440;28;20195;-80
2023/05/23 00:39:04;;;;;;;6.05;5.00;;;16.50;99.90;;;;;;4996580;28;20219;-79
2023/05/23 00:41:32;;;;;;;5.68;4.90;;;16.50;99.90;;;;;;5013796;28;20646;-80
2023/05/23 00:43:59;;;;;;;6.55;5.57;;;16.50;99.90;;;;;;4998919;28;20203;-79
2023/05/23 00:46:27;;;;;;;5.63;4.78;;;16.40;99.90;;;;;;5012861;28;20180;-80
2023/05/23 00:48:55;;;;;;;6.35;5.63;;;16.40;99.90;;;;;;5008118;28;20222;-79
2023/05/23 00:51:23;;;;;;;5.47;4.93;;;16.30;99.90;;;;;;4991003;28;20200;-79
2023/05/23 00:53:52;;;;;;;5.53;5.03;;;16.30;99.90;;;;;;4996255;28;20214;-78
2023/05/23 00:56:21;;;;;;;5.30;4.80;;;16.30;99.90;;;;;;5010369;28;20191;-79
2023/05/23 00:58:49;;;;;;;5.55;4.93;;;16.30;99.90;;;;;;5006787;28;20243;-80
2023/05/23 01:01:27;;;;;;;5.60;4.97;;;16.20;99.90;;;;;;4995048;28;20684;-80
2023/05/23 01:03:55;;;;;;;5.45;4.95;;;16.40;99.90;;;;;;4984458;28;20223;-80
2023/05/23 01:06:22;;;;;;;6.07;5.47;;;16.50;99.90;;;;;;4993831;28;20214;-80
2023/05/23 01:08:51;;;;;;;6.05;5.40;;;16.50;99.90;;;;;;4997825;28;20223;-79
2023/05/23 01:11:27;;;;;;;5.95;5.38;;;16.50;99.90;;;;;;5007107;28;20199;-80
2023/05/23 01:14:04;;;;;;;5.95;5.45;;;16.40;99.90;;;;;;4997793;28;20219;-79
2023/05/23 01:16:38;;;;;;;5.85;5.13;;;16.40;99.90;;;;;;5005697;28;20207;-79
2023/05/23 01:19:21;;;;;;;6.72;5.38;;;16.50;99.90;;;;;;4995324;28;20230;-77
2023/05/23 01:21:53;;;;;;;5.80;5.20;;;16.40;99.90;;;;;;5012465;28;20203;-77
2023/05/23 01:24:47;;;;;;;6.90;5.53;;;16.60;99.90;;;;;;5000941;28;20191;-78
2023/05/23 01:27:25;;;;;;;5.80;5.30;;;16.40;99.90;;;;;;5010692;28;20204;-78
2023/05/23 01:29:56;;;;;;;6.80;5.82;;;16.50;99.90;;;;;;5005874;28;20207;-77
2023/05/23 01:32:25;;;;;;;6.65;5.97;;;16.40;99.90;;;;;;5011738;28;20204;-78
2023/05/23 01:34:56;;;;;;;6.50;5.18;;;16.40;99.90;;;;;;4987171;28;20670;-78
2023/05/23 01:37:25;;;;;;;6.30;5.32;;;16.60;99.90;;;;;;5014367;28;20570;-78
2023/05/23 01:39:52;;;;;;;6.32;5.43;;;16.70;99.90;;;;;;5010103;28;20208;-78
2023/05/23 01:42:20;;;;;;;6.50;5.80;;;16.60;99.90;;;;;;5013359;28;20192;-78
2023/05/23 01:44:48;;;;;;;5.97;5.18;;;16.60;99.90;;;;;;5001229;28;20222;-77
2023/05/23 01:47:17;;;;;;;6.32;5.63;;;16.60;99.90;;;;;;5004086;28;20200;-78
2023/05/23 01:49:47;;;;;;;6.13;5.53;;;16.60;99.90;;;;;;5010543;28;20220;-77
2023/05/23 01:52:16;;;;;;;7.63;6.32;;;16.60;99.90;;;;;;4996256;28;20210;-77
2023/05/23 01:54:44;;;;;;;6.75;6.15;;;16.60;99.90;;;;;;4997662;28;20214;-78
2023/05/23 01:57:11;;;;;;;7.70;6.90;;;16.50;99.90;;;;;;5004619;28;20203;-77
2023/05/23 01:59:39;;;;;;;7.22;6.53;;;16.50;99.90;;;;;;5006750;28;20227;-77
2023/05/23 02:02:07;;;;;;;9.00;7.18;;;16.40;99.90;;;;;;4994079;28;20200;-77
2023/05/23 02:04:35;;;;;;;8.00;7.20;;;16.30;99.90;;;;;;4995215;28;20196;-77
2023/05/23 02:07:03;;;;;;;8.32;7.38;;;16.40;99.90;;;;;;4993930;28;20202;-78
2023/05/23 02:09:30;;;;;;;8.18;7.32;;;16.30;99.90;;;;;;5010397;28;20223;-78
2023/05/23 02:11:58;;;;;;;7.53;6.65;;;16.30;99.90;;;;;;4993632;28;20207;-77
2023/05/23 02:14:27;;;;;;;8.60;7.65;;;16.40;99.90;;;;;;4991912;28;20200;-78
2023/05/23 02:16:54;;;;;;;9.00;8.10;;;16.40;99.90;;;;;;4993452;28;20204;-77
2023/05/23 02:19:22;;;;;;;9.45;8.52;;;16.30;99.90;;;;;;4992611;28;20221;-78
2023/05/23 02:21:51;;;;;;;9.98;8.00;;;16.30;99.90;;;;;;5006649;28;20211;-77
2023/05/23 02:24:19;;;;;;;9.65;8.00;;;16.40;99.90;;;;;;5007587;28;20203;-77
2023/05/23 02:26:47;;;;;;;11.45;9.30;;;16.30;99.90;;;;;;5012804;28;20199;-77
2023/05/23 02:29:15;;;;;;;11.07;9.10;;;16.30;99.90;;;;;;4995993;28;20235;-77
2023/05/23 02:31:42;;;;;;;10.60;9.15;;;16.10;99.90;;;;;;4994069;28;20195;-78
2023/05/23 02:34:10;;;;;;;12.48;9.40;;;16.10;99.90;;;;;;4991891;28;20654;-77
2023/05/23 02:36:38;;;;;;;10.82;9.38;;;16.20;99.90;;;;;;4990383;28;20206;-77
2023/05/23 02:39:07;;;;;;;12.10;9.15;;;16.30;99.90;;;;;;5010017;28;20220;-77
2023/05/23 02:41:35;;;;;;;13.73;9.02;;;16.40;99.90;;;;;;4988804;28;20199;-78
2023/05/23 02:47:50;;;;;;;9.90;8.52;;;16.30;99.90;;;;;;5016262;28;20194;-77
2023/05/23 02:50:18;;;;;;;11.80;8.48;;;16.20;99.90;;;;;;4984753;28;20196;-78
2023/05/23 02:52:45;;;;;;;11.77;8.70;;;16.30;99.90;;;;;;5000919;28;20211;-77
2023/05/23 02:55:14;;;;;;;10.20;8.73;;;16.40;99.90;;;;;;4993434;28;20200;-78
2023/05/23 02:57:45;;;;;;;11.93;9.02;;;16.20;99.90;;;;;;5009235;28;20215;-77
2023/05/23 03:00:14;;;;;;;11.88;8.40;;;16.20;99.90;;;;;;5008397;28;20227;-78
2023/05/23 03:02:43;;;;;;;12.68;9.02;;;16.20;99.90;;;;;;4989227;28;20195;-77
2023/05/23 03:05:10;;;;;;;11.60;8.70;;;16.20;99.90;;;;;;4987168;28;20206;-77
2023/05/23 03:07:38;;;;;;;10.20;8.40;;;16.40;99.90;;;;;;4992774;28;20203;-77
2023/05/23 03:10:06;;;;;;;10.65;8.75;;;16.40;99.90;;;;;;4991331;28;20564;-77
2023/05/23 03:12:35;;;;;;;9.60;8.25;;;16.30;99.90;;;;;;5008224;28;20231;-77
2023/05/23 03:15:03;;;;;;;10.82;9.45;;;16.30;99.90;;;;;;4992574;28;20553;-77
2023/05/23 03:17:32;;;;;;;10.18;8.48;;;16.30;99.90;;;;;;4993419;28;20218;-78
2023/05/23 03:19:59;;;;;;;10.38;8.45;;;16.20;99.90;;;;;;5008483;28;20223;-77
2023/05/23 03:22:27;;;;;;;11.63;7.90;;;16.20;99.90;;;;;;5005266;28;20196;-77
2023/05/23 03:24:55;;;;;;;9.50;7.82;;;16.10;99.90;;;;;;4986724;28;20658;-77
2023/05/23 03:27:22;;;;;;;9.45;7.20;;;15.90;99.90;;;;;;4995829;28;20253;-79
2023/05/23 03:29:51;;;;;;;12.15;8.10;;;15.90;99.90;;;;;;4993404;28;20687;-79
2023/05/23 03:32:18;;;;;;;9.30;7.18;;;15.80;99.90;;;;;;4985236;28;20203;-79
2023/05/23 03:34:46;;;;;;;11.02;7.60;;;15.80;99.90;;;;;;5011446;28;20215;-79
2023/05/23 03:37:13;;;;;;;10.88;7.68;;;15.80;99.90;;;;;;5001245;28;20199;-79
2023/05/23 03:39:41;;;;;;;10.30;7.45;;;15.70;99.90;;;;;;4990493;28;20235;-79
2023/05/23 03:42:08;;;;;;;10.02;7.65;;;15.70;99.90;;;;;;4995057;28;20208;-79
2023/05/23 03:44:36;;;;;;;11.55;7.32;;;15.60;99.90;;;;;;4990415;28;20195;-79
2023/05/23 03:47:07;;;;;;;9.35;7.80;;;15.60;99.90;;;;;;5007762;28;20204;-79
2023/05/23 03:49:37;;;;;;;11.13;7.75;;;15.60;99.90;;;;;;4990274;28;20216;-79
2023/05/23 03:52:05;;;;;;;9.27;7.53;;;15.50;99.90;;;;;;5006080;28;20199;-79
2023/05/23 03:54:33;;;;;;;10.80;7.78;;;15.50;99.90;;;;;;5006498;28;20196;-79
2023/05/23 03:57:00;;;;;;;10.55;8.35;;;15.60;99.90;;;;;;5002711;28;20200;-79
2023/05/23 03:59:28;;;;;;;10.57;8.05;;;15.50;99.90;;;;;;5008137;28;20220;-79
2023/05/23 04:01:57;;;;;;;10.98;7.80;;;15.40;99.90;;;;;;4986547;28;20212;-82
2023/05/23 04:04:27;;;;;;;11.35;7.45;;;15.40;99.90;;;;;;4991783;28;20199;-82
2023/05/23 04:06:54;;;;;;;10.60;7.55;;;15.40;99.90;;;;;;5009615;28;20195;-83
2023/05/23 04:09:22;;;;;;;8.50;7.50;;;15.40;99.90;;;;;;4996052;28;20220;-82
2023/05/23 04:11:51;;;;;;;10.80;8.88;;;15.50;99.90;;;;;;5009815;28;20204;-82
2023/05/23 04:14:21;;;;;;;8.70;7.57;;;15.50;99.90;;;;;;4997989;28;20207;-82
2023/05/23 04:16:49;;;;;;;10.40;6.97;;;15.50;99.90;;;;;;5003204;28;20196;-82
2023/05/23 04:19:18;;;;;;;9.98;7.28;;;15.70;99.90;;;;;;4999507;28;20716;-80
2023/05/23 04:21:47;;;;;;;9.13;6.95;;;15.60;99.90;;;;;;4998853;28;20285;-80
2023/05/23 04:24:17;;;;;;;9.38;7.25;;;15.70;99.90;;;;;;4997615;28;20212;-80
2023/05/23 04:26:44;;;;;;;8.68;6.97;;;15.70;99.90;;;;;;4994001;28;20200;-80
2023/05/23 04:29:12;;;;;;;10.25;7.43;;;15.70;99.90;;;;;;5012859;28;20227;-80
2023/05/23 04:31:40;;;;;;;8.43;7.28;;;15.60;99.90;;;;;;5015779;28;20200;-80
2023/05/23 04:34:08;;;;;;;11.45;7.43;;;15.50;99.90;;;;;;5003202;28;20196;-82
2023/05/23 04:36:39;;;;;;;12.10;7.75;;;15.50;99.90;;;;;;5010962;28;20371;-81
2023/05/23 04:39:08;;;;;;;10.40;8.00;;;15.50;99.90;;;;;;5016618;28;20791;-81
2023/05/23 04:41:40;;;;;;;13.38;7.95;;;15.50;99.90;;;;;;5013154;28;20523;-81
2023/05/23 04:44:23;;;;;;;9.23;8.15;;;15.50;99.90;;;;;;5000864;28;20207;-81
2023/05/23 04:47:07;;;;;;;13.07;8.82;;;15.40;99.90;;;;;;5006941;28;20251;-81
2023/05/23 04:49:54;;;;;;;10.65;8.45;;;15.40;99.90;;;;;;5025966;28;20227;-81
2023/05/23 04:52:21;;;;;;;13.98;9.27;;;15.50;99.90;;;;;;5006009;28;20212;-81
2023/05/23 04:54:52;;;;;;;11.30;8.77;;;15.40;99.90;;;;;;4994112;28;20212;-81
2023/05/23 04:57:20;;;;;;;12.45;9.18;;;15.40;99.90;;;;;;5011490;28;20196;-81
2023/05/23 04:59:48;;;;;;;16.75;10.18;;;15.40;99.90;;;;;;4995038;28;20223;-81
2023/05/23 05:02:15;;;;;;;12.45;9.23;;;15.40;99.90;;;;;;5005991;28;20211;-81
2023/05/23 05:04:43;;;;;;;13.15;8.80;;;15.50;99.90;;;;;;5011390;28;20253;-81
2023/05/23 05:07:11;;;;;;;11.50;9.05;;;15.60;99.90;;;;;;5031805;28;20191;-81
2023/05/23 05:09:39;;;;;;;12.18;8.85;;;15.70;99.90;;;;;;5032158;28;20214;-81
2023/05/23 05:12:10;;;;;;;13.65;9.40;;;15.80;99.90;;;;;;4999634;28;20215;-81
2023/05/23 05:14:37;;;;;;;15.10;10.05;;;15.50;99.90;;;;;;5002008;28;20200;-80
2023/05/23 05:17:28;;;;;;;;;;;;;;;;;;;;;
2023/05/23 05:20:12;;;;;;;14.07;10.23;;;15.50;99.90;;;;;;5008272;28;20207;-80
2023/05/23 05:22:55;;;;;;;15.18;10.15;;;15.50;99.90;;;;;;5009927;28;20208;-80
2023/05/23 05:25:23;;;;;;;13.02;9.90;;;15.30;99.90;;;;;;4986750;28;20195;-81
2023/05/23 05:27:52;;;;;;;13.63;9.48;;;15.30;99.90;;;;;;4994588;28;20224;-81
2023/05/23 05:30:21;;;;;;;13.77;9.85;;;15.40;99.90;;;;;;5011020;28;20198;-81
2023/05/23 05:32:53;;;;;;;13.85;10.20;;;15.40;99.90;;;;;;5000523;28;20214;-81
2023/05/23 05:35:20;;;;;;;13.40;9.40;;;15.30;99.90;;;;;;4997800;28;20207;-79
2023/05/23 05:37:52;;;;;;;12.27;8.93;;;15.30;99.90;;;;;;4999189;28;20202;-80
2023/05/23 05:40:24;;;;;;;12.20;9.50;;;15.50;99.90;;;;;;5011829;28;20212;-81
2023/05/23 05:42:53;;;;;;;13.23;9.68;;;15.50;99.90;;;;;;5012145;28;20199;-81
2023/05/23 05:45:24;;;;;;;18.10;10.40;;;15.40;99.90;;;;;;5021443;28;20204;-80
2023/05/23 05:47:55;;;;;;;14.38;10.10;;;15.40;99.90;;;;;;5014898;28;20226;-80
2023/05/23 05:50:24;;;;;;;11.75;9.23;;;15.40;99.90;;;;;;5010211;28;20196;-80
2023/05/23 05:53:03;;;;;;;16.10;10.75;;;15.20;99.90;;;;;;5012028;28;20200;-81
2023/05/23 05:55:31;;;;;;;14.73;10.15;;;15.10;99.90;;;;;;4993783;28;20204;-82
2023/05/23 05:58:00;;;;;;;13.07;9.55;;;15.10;99.90;;;;;;5011162;28;20577;-81
2023/05/23 06:00:40;;;;;;;16.08;9.60;;;15.10;99.90;;;;;;5001945;28;20208;-81
2023/05/23 06:03:08;;;;;;;14.43;9.93;;;15.30;99.90;;;;;;5007280;28;20214;-82
2023/05/23 06:05:42;;;;;;;16.83;10.30;;;15.20;99.90;;;;;;5011723;28;20195;-81
2023/05/23 06:08:09;;;;;;;14.00;9.40;;;15.10;99.90;;;;;;5019809;28;20234;-81
2023/05/23 06:10:41;;;;;;;12.48;9.88;;;15.10;99.90;;;;;;5012843;28;20207;-83
2023/05/23 06:13:11;;;;;;;13.32;9.52;;;15.20;99.90;;;;;;5011175;28;20206;-82
2023/05/23 06:15:42;;;;;;;11.48;9.13;;;15.30;99.90;;;;;;5009129;28;20663;-80
2023/05/23 06:18:28;;;;;;;12.80;10.13;;;15.20;99.90;;;;;;4991040;28;20220;-80
2023/05/23 06:20:56;;;;;;;15.30;9.15;;;15.20;99.90;;;;;;4995809;28;20203;-81
2023/05/23 06:23:23;;;;;;;14.68;9.30;;;15.30;99.90;;;;;;5003922;28;20199;-81
2023/05/23 06:25:51;;;;;;;14.35;9.57;;;15.30;99.90;;;;;;4993922;28;20204;-80
2023/05/23 06:28:23;;;;;;;10.82;8.15;;;15.30;99.90;;;;;;4993096;28;20589;-81
2023/05/23 06:30:50;;;;;;;11.55;8.52;;;15.20;99.90;;;;;;4989543;28;20196;-82
2023/05/23 06:33:17;;;;;;;12.88;10.27;;;15.20;99.90;;;;;;4992053;28;20665;-82
2023/05/23 06:35:45;;;;;;;14.35;9.90;;;15.20;99.90;;;;;;4997503;28;20646;-82
2023/05/23 06:38:15;;;;;;;13.68;10.45;;;15.20;99.90;;;;;;4995311;28;20234;-83
2023/05/23 06:40:42;;;;;;;14.07;10.20;;;15.10;99.90;;;;;;4994607;28;20220;-82
2023/05/23 06:43:10;;;;;;;12.85;9.20;;;15.00;99.90;;;;;;4995167;28;20553;-82
2023/05/23 06:45:54;;;;;;;12.57;8.73;;;15.10;99.90;;;;;;5005497;28;20195;-82
2023/05/23 06:48:21;;;;;;;12.32;10.32;;;15.10;99.90;;;;;;5007574;28;20223;-82
2023/05/23 06:50:49;;;;;;;13.15;10.35;;;15.10;99.90;;;;;;4994054;28;20561;-82
2023/05/23 06:53:17;;;;;;;12.05;9.65;;;15.00;99.90;;;;;;4995010;28;20546;-83
2023/05/23 06:55:46;;;;;;;10.68;9.57;;;14.90;99.90;;;;;;4992110;28;20203;-82
2023/05/23 06:58:17;;;;;;;10.98;8.30;;;14.90;99.90;;;;;;5010701;28;20231;-83
2023/05/23 07:00:44;;;;;;;11.18;8.18;;;14.90;99.90;;;;;;4988000;28;20220;-82
2023/05/23 07:03:19;;;;;;;10.95;7.32;;;15.00;99.90;;;;;;5013365;28;20684;-82
2023/05/23 07:05:47;;;;;;;12.45;7.85;;;15.00;99.90;;;;;;4992262;28;20196;-82
2023/05/23 07:08:16;;;;;;;12.38;7.57;;;15.00;99.90;;;;;;5003167;28;20230;-83
2023/05/23 07:10:55;;;;;;;14.38;12.85;;;15.10;99.90;;;;;;5010604;28;20203;-82
2023/05/23 07:13:30;;;;;;;15.25;13.68;;;15.10;99.90;;;;;;4995203;28;20218;-82
2023/05/23 07:15:57;;;;;;;13.68;11.35;;;15.10;99.90;;;;;;4988093;28;20654;-83
2023/05/23 07:18:27;;;;;;;11.38;10.15;;;15.10;99.90;;;;;;5019797;28;20563;-83
2023/05/23 07:21:04;;;;;;;14.68;9.30;;;15.10;99.90;;;;;;4997204;28;20693;-83
2023/05/23 07:23:33;;;;;;;11.25;8.23;;;15.30;99.90;;;;;;5009678;28;20222;-83
2023/05/23 07:26:01;;;;;;;12.20;8.43;;;15.30;99.90;;;;;;5014887;28;20199;-82
2023/05/23 07:28:30;;;;;;;13.88;9.60;;;15.10;99.90;;;;;;5007010;28;20211;-82
2023/05/23 07:30:58;;;;;;;14.23;9.73;;;15.00;99.90;;;;;;4995200;28;20203;-82
2023/05/23 07:33:27;;;;;;;14.32;8.68;;;14.80;99.90;;;;;;4993686;28;20208;-83
2023/05/23 07:36:09;;;;;;;15.77;9.85;;;14.70;99.90;;;;;;4990103;28;20204;-84
2023/05/23 07:38:39;;;;;;;15.32;9.38;;;14.70;99.90;;;;;;5007454;28;20234;-83
2023/05/23 07:41:07;;;;;;;14.13;9.68;;;14.80;99.90;;;;;;5008171;28;20215;-83
2023/05/23 07:43:35;;;;;;;12.48;8.55;;;14.80;99.90;;;;;;4996275;28;20207;-83
2023/05/23 07:46:02;;;;;;;18.60;11.57;;;14.80;99.90;;;;;;5009410;28;20215;-82
2023/05/23 07:48:31;;;;;;;12.90;10.20;;;14.70;99.90;;;;;;4994422;28;20220;-82
2023/05/23 07:51:05;;;;;;;16.85;13.30;;;14.80;99.90;;;;;;5009735;28;20197;-82
2023/05/23 07:53:33;;;;;;;25.67;17.25;;;14.90;99.90;;;;;;5022754;28;20205;-82
2023/05/23 07:56:04;;;;;;;19.30;15.90;;;14.70;99.90;;;;;;5013433;28;20208;-82
2023/05/23 07:58:37;;;;;;;16.88;10.77;;;14.80;99.90;;;;;;5015013;28;20219;-82
2023/05/23 08:01:04;;;;;;;17.73;10.68;;;14.80;99.90;;;;;;5012659;28;20215;-82
2023/05/23 08:04:08;;;;;;;17.42;10.50;;;14.90;99.90;;;;;;5011255;28;20199;-82
2023/05/23 08:06:42;;;;;;;12.48;8.90;;;14.90;99.90;;;;;;4996240;28;20195;-82
2023/05/23 08:09:11;;;;;;;14.55;9.23;;;14.90;99.90;;;;;;5010218;28;20234;-80
2023/05/23 08:11:43;;;;;;;11.93;8.45;;;14.80;99.90;;;;;;5007749;28;20681;-82
2023/05/23 08:14:42;;;;;;;10.85;8.07;;;14.70;99.90;;;;;;4990954;28;20213;-84
2023/05/23 08:17:20;;;;;;;11.57;7.60;;;14.70;99.90;;;;;;4995658;28;20219;-82
2023/05/23 08:19:50;;;;;;;12.02;7.15;;;14.60;99.90;;;;;;5013943;28;20712;-83
2023/05/23 08:22:18;;;;;;;18.17;7.22;;;14.60;99.90;;;;;;5013740;28;20266;-83
2023/05/23 08:24:46;;;;;;;11.32;7.85;;;14.80;99.90;;;;;;4996925;28;20200;-83
2023/05/23 08:27:13;;;;;;;11.02;7.70;;;14.70;99.90;;;;;;4994866;28;20210;-82
2023/05/23 08:29:43;;;;;;;13.20;7.88;;;14.60;99.90;;;;;;4991611;28;20228;-84
2023/05/23 08:32:11;;;;;;;15.57;9.43;;;14.70;99.90;;;;;;5005617;28;20196;-85
2023/05/23 08:34:40;;;;;;;14.10;8.38;;;14.70;99.90;;;;;;4994985;28;20211;-84
2023/05/23 08:37:13;;;;;;;11.70;8.15;;;14.60;99.90;;;;;;4993910;28;20203;-82
2023/05/23 08:39:43;;;;;;;18.67;8.38;;;14.60;99.90;;;;;;4993657;28;20704;-81
2023/05/23 08:42:37;;;;;;;10.77;7.47;;;14.60;99.90;;;;;;5008448;28;20212;-82
2023/05/23 08:45:08;;;;;;;11.93;7.40;;;14.50;99.90;;;;;;4991078;28;20561;-81
2023/05/23 08:47:37;;;;;;;10.70;7.07;;;14.50;99.90;;;;;;4999523;28;20227;-81
2023/05/23 08:50:07;;;;;;;11.90;7.68;;;14.40;99.90;;;;;;4996050;28;20200;-81
2023/05/23 08:52:42;;;;;;;8.60;6.50;;;14.50;99.90;;;;;;4998827;28;20191;-81
2023/05/23 08:55:12;;;;;;;7.35;6.25;;;14.40;99.90;;;;;;5011735;28;20209;-81
2023/05/23 08:57:42;;;;;;;10.40;7.65;;;14.40;99.90;;;;;;4997688;28;20200;-81
2023/05/23 09:00:28;;;;;;;10.18;7.18;;;14.60;99.90;;;;;;4993846;28;20204;-82
2023/05/23 09:02:57;;;;;;;10.52;7.80;;;14.60;99.90;;;;;;4995860;28;20218;-82
2023/05/23 09:05:42;;;;;;;11.95;9.43;;;14.60;99.90;;;;;;5012625;28;20230;-82
2023/05/23 09:08:12;;;;;;;10.50;7.32;;;14.70;99.90;;;;;;5009441;28;20226;-82
2023/05/23 09:10:40;;;;;;;9.50;7.53;;;14.40;99.90;;;;;;4997374;28;20203;-82
2023/05/23 09:13:09;;;;;;;13.23;8.00;;;14.30;99.90;;;;;;4994272;28;20196;-82
2023/05/23 09:15:37;;;;;;;12.30;7.60;;;14.30;99.90;;;;;;4991667;28;20195;-82
2023/05/23 09:18:05;;;;;;;12.27;7.82;;;14.00;99.90;;;;;;4993893;28;20587;-82
2023/05/23 09:20:34;;;;;;;13.25;7.72;;;14.00;99.90;;;;;;4991545;28;20211;-82
2023/05/23 09:23:12;;;;;;;14.23;8.98;;;14.10;99.90;;;;;;4997345;28;20617;-82
2023/05/23 09:25:46;;;;;;;14.75;9.02;;;14.00;99.90;;;;;;5002278;28;20206;-82
2023/05/23 09:28:17;;;;;;;16.60;10.48;;;13.90;99.90;;;;;;4993957;28;20230;-82
2023/05/23 09:30:48;;;;;;;13.38;10.32;;;14.00;99.90;;;;;;4999931;28;20556;-81
2023/05/23 09:33:18;;;;;;;13.63;8.45;;;14.10;99.90;;;;;;5002443;28;20196;-81
2023/05/23 09:35:46;;;;;;;16.15;7.60;;;14.30;99.90;;;;;;4989715;28;20200;-82
2023/05/23 09:38:19;;;;;;;16.45;9.80;;;14.30;99.90;;;;;;4991257;28;20220;-82
2023/05/23 09:40:51;;;;;;;26.63;19.55;;;14.20;99.90;;;;;;5012745;28;20685;-81
2023/05/23 09:46:57;;;;;;;27.70;19.33;;;14.20;99.90;;;;;;4989772;28;20200;-82
2023/05/23 09:49:27;;;;;;;32.08;20.98;;;14.20;99.90;;;;;;4996065;28;20231;-82
2023/05/23 09:51:58;;;;;;;15.95;11.32;;;14.20;99.90;;;;;;5007499;28;20565;-80
2023/05/23 09:54:27;;;;;;;11.18;7.97;;;14.20;99.90;;;;;;4991150;28;20524;-79
2023/05/23 09:56:56;;;;;;;9.65;7.70;;;14.20;99.90;;;;;;5005870;28;20228;-82
2023/05/23 09:59:28;;;;;;;16.48;11.57;;;14.10;99.90;;;;;;5008345;28;20199;-82
2023/05/23 10:01:57;;;;;;;17.88;11.32;;;14.00;99.90;;;;;;5013047;28;20657;-82
2023/05/23 10:04:26;;;;;;;15.00;10.07;;;14.10;99.90;;;;;;4999416;28;20212;-82
2023/05/23 10:07:00;;;;;;;15.07;8.73;;;14.20;99.90;;;;;;4993557;28;20203;-82
2023/05/23 10:09:33;;;;;;;14.52;9.27;;;14.10;99.90;;;;;;4986828;28;20219;-81
2023/05/23 10:12:39;;;;;;;14.68;9.60;;;14.00;99.90;;;;;;4993479;28;20212;-81
2023/05/23 10:15:09;;;;;;;14.70;8.77;;;14.10;99.90;;;;;;4991003;28;20203;-82
2023/05/23 10:17:46;;;;;;;12.80;8.23;;;14.20;99.90;;;;;;4981488;28;20271;-81
2023/05/23 10:20:18;;;;;;;16.38;9.73;;;14.30;99.90;;;;;;4990427;28;20196;-82
2023/05/23 10:22:50;;;;;;;16.23;8.63;;;14.20;99.90;;;;;;5005715;28;20219;-82
2023/05/23 10:25:19;;;;;;;17.13;8.50;;;14.00;99.90;;;;;;5002477;28;20214;-81
2023/05/23 10:27:57;;;;;;;14.85;9.85;;;13.90;99.90;;;;;;5026223;28;20214;-82
2023/05/23 10:30:25;;;;;;;15.13;8.93;;;13.90;99.90;;;;;;4992861;28;20799;-81
2023/05/23 10:32:54;;;;;;;16.90;8.95;;;13.80;99.90;;;;;;5008749;28;20207;-79
2023/05/23 10:35:30;;;;;;;14.73;8.27;;;14.90;99.90;;;;;;4990226;28;20222;-82
2023/05/23 10:38:04;;;;;;;11.43;6.72;;;14.30;99.90;;;;;;5008111;28;20223;-79
2023/05/23 10:40:46;;;;;;;11.65;7.40;;;13.90;99.90;;;;;;4990576;28;20662;-81
2023/05/23 10:43:22;;;;;;;13.43;6.50;;;13.90;99.90;;;;;;5013323;28;20199;-81
2023/05/23 10:45:50;;;;;;;9.88;6.60;;;14.00;99.90;;;;;;4993410;28;20211;-81
2023/05/23 10:48:22;;;;;;;8.93;5.88;;;14.20;99.90;;;;;;5007909;28;20698;-81
2023/05/23 10:51:04;;;;;;;8.15;5.68;;;14.60;99.90;;;;;;4992834;28;20228;-81
2023/05/23 10:53:34;;;;;;;12.25;6.35;;;14.70;99.90;;;;;;5006573;28;20201;-81
2023/05/23 10:56:05;;;;;;;9.13;6.38;;;14.60;99.90;;;;;;4993584;28;20207;-81
2023/05/23 10:58:33;;;;;;;14.30;6.78;;;14.70;99.90;;;;;;5006459;28;20246;-81
2023/05/23 11:01:02;;;;;;;9.85;6.50;;;14.80;99.90;;;;;;4989869;28;20208;-81
2023/05/23 11:03:34;;;;;;;8.88;7.18;;;14.80;99.90;;;;;;5003736;28;20219;-79
2023/05/23 11:06:03;;;;;;;9.50;6.47;;;14.80;99.90;;;;;;5008841;28;20210;-80
2023/05/23 11:08:38;;;;;;;7.82;5.30;;;14.80;99.90;;;;;;4987289;28;20228;-81
2023/05/23 11:11:07;;;;;;;9.43;5.30;;;14.70;99.90;;;;;;4991607;28;20204;-81
2023/05/23 11:13:55;;;;;;;12.68;5.45;;;14.70;99.90;;;;;;4992022;28;20195;-81
2023/05/23 11:16:27;;;;;;;9.18;4.95;;;14.80;99.90;;;;;;4994117;28;20203;-81
2023/05/23 11:19:26;;;;;;;7.80;4.65;;;15.00;99.90;;;;;;4994713;28;20223;-81
2023/05/23 11:21:55;;;;;;;7.03;4.50;;;15.20;99.90;;;;;;4995417;28;20258;-83
2023/05/23 11:24:23;;;;;;;7.88;5.45;;;15.40;99.90;;;;;;4991622;28;20570;-81
2023/05/23 11:26:59;;;;;;;8.57;6.38;;;15.20;99.90;;;;;;4993478;28;20207;-81
2023/05/23 11:29:28;;;;;;;10.38;7.15;;;15.00;99.90;;;;;;5006820;28;20729;-81
2023/05/23 11:31:56;;;;;;;10.25;6.20;;;14.80;99.90;;;;;;4990522;28;20215;-82
2023/05/23 11:34:26;;;;;;;10.23;4.80;;;14.70;99.90;;;;;;4994073;28;20203;-80
2023/05/23 11:36:55;;;;;;;9.63;4.78;;;14.60;99.90;;;;;;5011742;28;20646;-81
2023/05/23 11:39:23;;;;;;;7.07;4.18;;;14.50;99.90;;;;;;5014211;28;20219;-81
2023/05/23 11:42:04;;;;;;;7.22;4.10;;;14.60;99.90;;;;;;4995332;28;20212;-80
2023/05/23 11:44:32;;;;;;;8.75;4.10;;;14.70;99.90;;;;;;5010478;28;20224;-82
2023/05/23 11:47:02;;;;;;;8.93;3.95;;;14.80;99.90;;;;;;4994522;28;20214;-81
2023/05/23 11:49:30;;;;;;;7.43;4.13;;;15.00;99.90;;;;;;5012268;28;20231;-81
2023/05/23 11:51:59;;;;;;;8.55;4.10;;;15.10;99.90;;;;;;4994284;28;20211;-81
2023/05/23 11:54:27;;;;;;;7.10;4.05;;;15.00;99.90;;;;;;5003215;28;20243;-82
2023/05/23 11:56:55;;;;;;;8.55;4.60;;;15.00;99.90;;;;;;5000197;28;20646;-82
2023/05/23 11:59:25;;;;;;;7.75;4.47;;;15.00;99.90;;;;;;4993962;28;20220;-81
2023/05/23 12:01:54;;;;;;;8.95;4.53;;;14.90;99.90;;;;;;5018835;28;20889;-82
2023/05/23 12:04:22;;;;;;;10.00;4.57;;;14.90;99.90;;;;;;4996551;28;20230;-81
2023/05/23 12:06:50;;;;;;;9.77;4.65;;;15.00;99.90;;;;;;4996766;28;20595;-82
2023/05/23 12:09:18;;;;;;;9.15;5.50;;;15.10;99.90;;;;;;4999928;28;20239;-82
2023/05/23 12:11:45;;;;;;;11.07;5.13;;;15.10;99.90;;;;;;5013787;28;20215;-81
2023/05/23 12:14:17;;;;;;;8.70;4.30;;;15.40;99.90;;;;;;4993371;28;20208;-81
2023/05/23 12:16:46;;;;;;;8.68;4.80;;;15.80;99.90;;;;;;5002458;28;20211;-81
2023/05/23 12:19:16;;;;;;;6.72;4.28;;;15.90;99.90;;;;;;5001773;28;20228;-80
2023/05/23 12:21:44;;;;;;;7.63;3.50;;;16.20;99.90;;;;;;5001673;28;20226;-82
2023/05/23 12:24:17;;;;;;;8.40;5.00;;;16.50;99.90;;;;;;5000933;28;20218;-81
2023/05/23 12:26:49;;;;;;;8.05;4.03;;;16.50;99.30;;;;;;4999346;28;20204;-81
2023/05/23 12:29:19;;;;;;;8.50;3.80;;;16.50;98.90;;;;;;5017063;28;20219;-82
2023/05/23 12:31:51;;;;;;;9.68;4.30;;;16.80;98.80;;;;;;4993693;28;20204;-82
2023/05/23 12:34:21;;;;;;;7.60;3.90;;;16.80;98.10;;;;;;5012295;28;20200;-82
2023/05/23 12:36:49;;;;;;;4.72;3.38;;;17.00;98.30;;;;;;4996635;28;20659;-81
2023/05/23 12:39:16;;;;;;;8.90;3.70;;;17.30;98.10;;;;;;4998997;28;20219;-81
2023/05/23 12:41:45;;;;;;;9.63;4.22;;;17.20;97.80;;;;;;4996127;28;20195;-81
2023/05/23 12:44:16;;;;;;;8.15;4.28;;;17.20;97.10;;;;;;4998640;28;20238;-81
2023/05/23 12:46:44;;;;;;;11.43;4.38;;;16.90;96.80;;;;;;5009569;28;20197;-82
2023/05/23 12:49:13;;;;;;;7.80;3.90;;;17.10;97.30;;;;;;4996779;28;20212;-81
2023/05/23 12:51:40;;;;;;;8.80;4.43;;;17.10;96.40;;;;;;5000027;28;20196;-82
2023/05/23 12:54:09;;;;;;;7.75;4.20;;;17.00;96.50;;;;;;5011315;28;20204;-81
2023/05/23 12:56:36;;;;;;;10.88;5.03;;;16.90;97.50;;;;;;4997000;28;20208;-81
2023/05/23 12:59:04;;;;;;;7.07;4.20;;;16.70;96.70;;;;;;5012347;28;20223;-82
2023/05/23 13:01:33;;;;;;;10.80;4.13;;;16.80;96.60;;;;;;4995308;28;20208;-82
2023/05/23 13:04:00;;;;;;;9.20;4.22;;;17.20;95.90;;;;;;5015096;28;20230;-82
2023/05/23 13:06:30;;;;;;;7.00;4.25;;;17.20;95.30;;;;;;5009239;28;20211;-81